Time;durP1;ratioP1;P1;durP2;ratioP2;P2;SDS_P1;SDS_P2;PMS_P1;PMS_P2;Temp;Humidity;BMP_temperature;BMP_pressure;BME280_temperature;BME280_humidity;BME280_pressure;Samples;Min_cycle;Max_cycle;Signal;HPM_P1;HPM_P2
2023/10/07 00:02:20;;;;;;;15.23;3.88;;;16.00;99.90;;;;;;5067333;28;20048;-58
2023/10/07 00:04:45;;;;;;;13.10;4.15;;;16.00;99.90;;;;;;5068051;28;20494;-58
2023/10/07 00:07:12;;;;;;;20.10;3.58;;;16.00;99.90;;;;;;5067800;28;20387;-58
2023/10/07 00:09:44;;;;;;;22.95;4.22;;;16.10;99.90;;;;;;5061563;28;20549;-57
2023/10/07 00:12:15;;;;;;;13.18;4.20;;;16.10;99.90;;;;;;5066707;28;20431;-58
2023/10/07 00:14:41;;;;;;;13.57;3.78;;;16.10;99.90;;;;;;5061867;28;20045;-58
2023/10/07 00:17:17;;;;;;;15.73;5.07;;;16.00;99.90;;;;;;5066186;28;20043;-57
2023/10/07 00:19:44;;;;;;;14.63;4.35;;;16.10;99.90;;;;;;5064830;28;20062;-57
2023/10/07 00:22:13;;;;;;;21.33;4.60;;;16.00;99.90;;;;;;5067146;28;20075;-58
2023/10/07 00:24:43;;;;;;;17.27;4.35;;;16.00;99.90;;;;;;5066126;28;20499;-58
2023/10/07 00:27:30;;;;;;;16.75;4.55;;;16.10;99.90;;;;;;5067066;28;20040;-58
2023/10/07 00:30:01;;;;;;;17.98;4.45;;;16.10;99.90;;;;;;5060507;28;20037;-57
2023/10/07 00:32:32;;;;;;;13.85;3.88;;;16.10;99.90;;;;;;5067790;28;20464;-57
2023/10/07 00:35:01;;;;;;;16.52;4.53;;;16.10;99.90;;;;;;5067233;28;20051;-56
2023/10/07 00:37:30;;;;;;;24.52;4.43;;;16.10;99.90;;;;;;5068679;28;20047;-58
2023/10/07 00:40:00;;;;;;;18.85;5.07;;;16.20;99.90;;;;;;5062166;28;20067;-57
2023/10/07 00:42:26;;;;;;;13.65;3.83;;;16.10;99.90;;;;;;5067505;28;20040;-57
2023/10/07 00:44:52;;;;;;;20.10;4.82;;;16.10;99.90;;;;;;5063611;28;20043;-58
2023/10/07 00:47:19;;;;;;;24.00;4.10;;;16.10;99.90;;;;;;5066202;28;20033;-59
2023/10/07 00:55:18;;;;;;;14.77;4.50;;;16.10;99.90;;;;;;5030138;28;20458;-54
2023/10/07 00:57:53;;;;;;;15.27;4.55;;;16.20;99.90;;;;;;5070927;28;20229;-55
2023/10/07 01:02:45;;;;;;;17.75;4.60;;;16.20;99.90;;;;;;5063972;28;20040;-57
2023/10/07 01:05:32;;;;;;;12.55;4.05;;;16.20;99.90;;;;;;5067975;28;20051;-56
2023/10/07 01:07:58;;;;;;;23.38;5.20;;;16.20;99.90;;;;;;5070814;28;20191;-58
2023/10/07 01:10:31;;;;;;;15.27;5.60;;;16.20;99.90;;;;;;5069096;28;20464;-57
2023/10/07 01:13:02;;;;;;;18.00;4.80;;;16.20;99.90;;;;;;5070922;28;20522;-56
2023/10/07 01:15:30;;;;;;;14.00;5.05;;;16.20;99.90;;;;;;5069143;28;20048;-55
2023/10/07 01:18:05;;;;;;;20.58;4.88;;;16.30;99.90;;;;;;5071993;28;20503;-57
2023/10/07 01:23:33;;;;;;;15.52;4.40;;;16.30;99.90;;;;;;5066981;28;20048;-56
2023/10/07 01:26:14;;;;;;;17.90;4.93;;;16.30;99.90;;;;;;5069265;28;20048;-57
2023/10/07 01:28:40;;;;;;;11.55;3.92;;;16.30;99.90;;;;;;5067599;28;20040;-58
2023/10/07 01:31:12;;;;;;;10.82;4.32;;;16.30;99.90;;;;;;5065597;28;20045;-58
2023/10/07 01:33:47;;;;;;;18.90;5.40;;;16.40;99.90;;;;;;5068672;28;20055;-56
2023/10/07 01:36:16;;;;;;;21.35;5.15;;;16.40;99.90;;;;;;5069385;28;20119;-58
2023/10/07 01:38:50;;;;;;;13.77;5.13;;;16.40;99.90;;;;;;5073309;28;20041;-59
2023/10/07 01:41:20;;;;;;;22.17;5.55;;;16.40;99.90;;;;;;5075307;28;20033;-56
2023/10/07 01:43:59;;;;;;;15.77;4.75;;;16.40;99.90;;;;;;5071422;28;20059;-55
2023/10/07 01:46:29;;;;;;;22.75;5.18;;;16.40;99.90;;;;;;5069175;28;20043;-57
2023/10/07 01:49:12;;;;;;;23.55;5.30;;;16.40;99.90;;;;;;5069156;28;20065;-57
2023/10/07 01:51:44;;;;;;;18.15;5.18;;;16.50;99.90;;;;;;5068232;28;20445;-57
2023/10/07 01:54:11;;;;;;;20.98;5.03;;;16.50;99.90;;;;;;5059935;28;20086;-56
2023/10/07 01:56:38;;;;;;;18.83;5.38;;;16.50;99.90;;;;;;5070719;28;20590;-56
2023/10/07 02:01:42;;;;;;;15.65;5.35;;;16.50;99.90;;;;;;5070279;28;20052;-57
2023/10/07 02:04:11;;;;;;;17.63;4.00;;;16.50;99.90;;;;;;5065983;28;20032;-56
2023/10/07 02:06:50;;;;;;;14.52;4.18;;;16.60;99.90;;;;;;5067292;28;20131;-55
2023/10/07 02:09:23;;;;;;;17.20;5.35;;;16.60;99.90;;;;;;5069468;28;20045;-55
2023/10/07 02:11:49;;;;;;;20.02;5.63;;;16.60;99.90;;;;;;5068722;28;20052;-56
2023/10/07 02:14:14;;;;;;;21.60;5.55;;;16.60;99.90;;;;;;5070519;28;20037;-56
2023/10/07 02:16:40;;;;;;;28.45;5.72;;;16.60;99.90;;;;;;5066594;28;20518;-56
2023/10/07 02:19:05;;;;;;;20.85;4.40;;;16.60;99.90;;;;;;5070155;28;20037;-57
2023/10/07 02:21:32;;;;;;;17.38;4.97;;;16.70;99.90;;;;;;5066247;28;20044;-56
2023/10/07 02:23:58;;;;;;;17.00;5.50;;;16.70;99.90;;;;;;5062371;28;20047;-57
2023/10/07 02:26:25;;;;;;;14.95;5.03;;;16.70;99.90;;;;;;5065606;28;20395;-56
2023/10/07 02:28:52;;;;;;;16.58;4.60;;;16.70;99.90;;;;;;5069967;28;20115;-56
2023/10/07 02:31:23;;;;;;;17.95;5.30;;;16.70;99.90;;;;;;5064540;28;20414;-58
2023/10/07 02:33:52;;;;;;;14.55;4.90;;;16.70;99.90;;;;;;5064990;28;20413;-58
2023/10/07 02:36:31;;;;;;;19.98;5.00;;;16.80;99.90;;;;;;5070695;28;20068;-57
2023/10/07 02:41:46;;;;;;;17.02;5.68;;;16.80;99.90;;;;;;5066657;28;20518;-57
2023/10/07 02:44:16;;;;;;;;;;;16.70;99.90;;;;;;5067223;28;20044;-56
2023/10/07 02:46:42;;;;;;;20.90;5.90;;;16.80;99.90;;;;;;5071572;28;19931;-56
2023/10/07 02:49:13;;;;;;;15.65;5.95;;;16.80;99.90;;;;;;5069599;28;20503;-58
2023/10/07 02:51:39;;;;;;;14.50;5.00;;;16.80;99.90;;;;;;5069058;28;20089;-57
2023/10/07 02:54:17;;;;;;;16.50;5.40;;;16.80;99.90;;;;;;5066563;28;20071;-56
2023/10/07 02:56:55;;;;;;;19.17;6.13;;;16.80;99.90;;;;;;5067184;28;20048;-58
2023/10/07 02:59:28;;;;;;;21.55;5.97;;;16.80;99.90;;;;;;5068046;28;20075;-57
2023/10/07 03:07:41;;;;;;;17.50;5.50;;;16.80;99.90;;;;;;5069332;28;20063;-53
2023/10/07 03:10:16;;;;;;;23.67;6.38;;;16.80;99.90;;;;;;5065756;28;20094;-56
2023/10/07 03:12:47;;;;;;;25.92;6.65;;;16.80;99.90;;;;;;5070851;28;20032;-53
2023/10/07 03:18:00;;;;;;;19.73;4.57;;;16.80;99.90;;;;;;5069250;28;20059;-52
2023/10/07 03:20:31;;;;;;;;;;;16.80;99.90;;;;;;5068137;28;20052;-54
2023/10/07 03:23:19;;;;;;;17.48;5.40;;;16.80;99.90;;;;;;5069650;28;19916;-55
2023/10/07 03:28:34;;;;;;;15.52;4.93;;;16.80;99.90;;;;;;5066248;28;20454;-54
2023/10/07 03:31:00;;;;;;;15.25;5.15;;;16.80;99.90;;;;;;5065643;28;20044;-56
2023/10/07 03:41:47;;;;;;;18.35;5.43;;;16.80;99.90;;;;;;5068356;28;20454;-56
2023/10/07 03:44:17;;;;;;;19.10;6.03;;;16.80;99.90;;;;;;5067500;28;20072;-56
2023/10/07 03:46:47;;;;;;;22.92;6.72;;;16.80;99.90;;;;;;5066558;28;20033;-58
2023/10/07 03:49:16;;;;;;;16.35;5.47;;;16.80;99.90;;;;;;5065599;28;20105;-57
2023/10/07 03:51:45;;;;;;;22.05;6.05;;;16.80;99.90;;;;;;5065574;28;20091;-56
2023/10/07 03:54:15;;;;;;;21.85;5.70;;;16.80;99.90;;;;;;5062809;28;20108;-55
2023/10/07 03:56:49;;;;;;;14.30;5.28;;;16.80;99.90;;;;;;5063358;28;20517;-53
2023/10/07 03:59:15;;;;;;;21.40;5.82;;;16.80;99.90;;;;;;5064545;28;20048;-56
2023/10/07 04:01:42;;;;;;;21.08;6.85;;;16.80;99.90;;;;;;5066834;28;20033;-57
2023/10/07 04:04:11;;;;;;;18.23;6.07;;;16.80;99.90;;;;;;5065415;28;20101;-57
2023/10/07 04:06:38;;;;;;;19.27;5.82;;;16.80;99.90;;;;;;5060983;28;20079;-55
2023/10/07 04:09:07;;;;;;;21.92;6.00;;;16.80;99.90;;;;;;5063437;28;20157;-56
2023/10/07 04:11:34;;;;;;;20.13;5.55;;;16.80;99.90;;;;;;5060839;28;20081;-56
2023/10/07 04:14:07;;;;;;;19.55;7.10;;;16.80;99.90;;;;;;5059517;28;20045;-56
2023/10/07 04:16:33;;;;;;;20.80;6.28;;;16.80;99.90;;;;;;5062062;28;20483;-55
2023/10/07 04:21:47;;;;;;;21.15;6.80;;;16.80;99.90;;;;;;5065375;28;19920;-57
2023/10/07 04:24:13;;;;;;;19.60;6.60;;;16.80;99.90;;;;;;5067540;28;20037;-57
2023/10/07 04:26:51;;;;;;;18.05;6.97;;;16.80;99.90;;;;;;5063783;28;20263;-53
2023/10/07 04:29:18;;;;;;;20.40;7.30;;;16.80;99.90;;;;;;5062730;28;20041;-57
2023/10/07 04:31:47;;;;;;;;;;;16.80;99.90;;;;;;5066327;28;20392;-58
2023/10/07 04:34:17;;;;;;;28.63;7.20;;;16.80;99.90;;;;;;5065862;28;19921;-57
2023/10/07 04:37:08;;;;;;;20.42;7.50;;;16.80;99.90;;;;;;5067536;28;20075;-58
2023/10/07 04:42:20;;;;;;;19.65;7.13;;;16.80;99.90;;;;;;5060668;28;20037;-57
2023/10/07 04:50:08;;;;;;;16.98;6.10;;;16.80;99.90;;;;;;5065748;28;20392;-57
2023/10/07 04:52:40;;;;;;;16.55;6.22;;;16.80;99.90;;;;;;5063590;28;20495;-57
2023/10/07 04:55:19;;;;;;;18.83;6.28;;;16.80;99.90;;;;;;5066703;28;20119;-58
2023/10/07 05:03:14;;;;;;;14.52;6.05;;;16.80;99.90;;;;;;5064300;28;20476;-57
2023/10/07 05:05:43;;;;;;;18.80;5.75;;;16.80;99.90;;;;;;5066155;28;20048;-56
2023/10/07 05:08:17;;;;;;;18.35;5.25;;;16.80;99.90;;;;;;5067227;28;20415;-58
2023/10/07 05:10:48;;;;;;;19.27;6.50;;;16.80;99.90;;;;;;5065799;28;20043;-57
2023/10/07 05:13:16;;;;;;;21.95;6.07;;;16.80;99.90;;;;;;5066782;28;20411;-55
2023/10/07 05:15:42;;;;;;;;;;;16.80;99.90;;;;;;5068047;28;20040;-55
2023/10/07 05:18:12;;;;;;;22.80;7.03;;;16.80;99.90;;;;;;5062113;28;19917;-57
2023/10/07 05:20:38;;;;;;;25.73;6.45;;;16.80;99.90;;;;;;5060297;28;20037;-57
2023/10/07 05:23:06;;;;;;;24.15;6.82;;;16.90;99.90;;;;;;5066252;28;20040;-56
2023/10/07 05:25:43;;;;;;;22.77;5.93;;;16.90;99.90;;;;;;5065177;28;20083;-58
2023/10/07 05:28:10;;;;;;;20.60;6.10;;;16.80;99.90;;;;;;5061666;28;20044;-57
2023/10/07 05:31:00;;;;;;;18.90;5.65;;;16.80;99.90;;;;;;5059441;28;20045;-60
2023/10/07 05:33:28;;;;;;;17.92;5.88;;;16.90;99.90;;;;;;5052325;28;20095;-58
2023/10/07 05:36:13;;;;;;;24.58;5.40;;;16.90;99.90;;;;;;5056368;28;20041;-58
2023/10/07 05:38:47;;;;;;;20.23;6.40;;;16.90;99.90;;;;;;5046740;28;20040;-58
2023/10/07 05:41:15;;;;;;;22.42;5.72;;;16.90;99.90;;;;;;5068791;28;20037;-60
2023/10/07 05:43:44;;;;;;;14.73;5.40;;;16.90;99.90;;;;;;5068728;28;20047;-54
2023/10/07 05:46:13;;;;;;;20.35;5.53;;;16.90;99.90;;;;;;5067160;28;20101;-58
2023/10/07 05:48:40;;;;;;;16.08;5.78;;;16.80;99.90;;;;;;5067944;28;20473;-54
2023/10/07 05:51:09;;;;;;;18.73;6.28;;;16.90;99.90;;;;;;5069358;28;20044;-56
2023/10/07 05:53:55;;;;;;;18.02;5.78;;;16.80;99.90;;;;;;5060812;28;20045;-53
2023/10/07 05:56:22;;;;;;;15.48;5.65;;;16.80;99.90;;;;;;5060384;28;20045;-54
2023/10/07 05:58:48;;;;;;;20.95;6.38;;;16.80;99.90;;;;;;5060618;28;20045;-56
2023/10/07 06:01:14;;;;;;;;;;;16.80;99.90;;;;;;5057458;28;20356;-56
2023/10/07 06:03:40;;;;;;;19.85;6.30;;;16.80;99.90;;;;;;5062672;28;19916;-56
2023/10/07 06:06:06;;;;;;;15.60;6.28;;;16.70;99.90;;;;;;5064700;28;20078;-58
2023/10/07 06:08:32;;;;;;;16.90;6.55;;;16.70;99.90;;;;;;5067331;28;20037;-58
2023/10/07 06:10:59;;;;;;;22.42;7.45;;;16.70;99.90;;;;;;5071028;28;20048;-53
2023/10/07 06:13:27;;;;;;;19.10;6.72;;;16.70;99.90;;;;;;5071573;28;20051;-53
2023/10/07 06:15:57;;;;;;;15.07;6.72;;;16.60;99.90;;;;;;5071599;28;20036;-58
2023/10/07 06:18:24;;;;;;;20.65;6.60;;;16.60;99.90;;;;;;5071397;28;20036;-57
2023/10/07 06:20:51;;;;;;;26.42;7.07;;;16.60;99.90;;;;;;5070177;28;20321;-54
2023/10/07 06:23:24;;;;;;;14.23;6.35;;;16.60;99.90;;;;;;5065461;28;20115;-58
2023/10/07 06:25:51;;;;;;;29.83;7.68;;;16.60;99.90;;;;;;5071460;28;20044;-56
2023/10/07 06:28:29;;;;;;;18.52;6.68;;;16.60;99.90;;;;;;5066101;28;20051;-57
2023/10/07 06:31:15;;;;;;;21.35;7.07;;;16.60;99.90;;;;;;5065149;28;20412;-58
2023/10/07 06:33:44;;;;;;;18.63;7.03;;;16.60;99.90;;;;;;5056704;28;20048;-56
2023/10/07 06:36:12;;;;;;;22.33;7.25;;;16.60;99.90;;;;;;5068613;28;20495;-57
2023/10/07 06:38:45;;;;;;;20.08;6.78;;;16.60;99.90;;;;;;5071163;28;20391;-58
2023/10/07 06:41:12;;;;;;;25.70;7.90;;;16.60;99.90;;;;;;5071072;28;20037;-57
2023/10/07 06:43:47;;;;;;;17.58;6.00;;;16.60;99.90;;;;;;5061319;28;20040;-55
2023/10/07 06:46:13;;;;;;;22.85;7.70;;;16.60;99.90;;;;;;5058632;28;20091;-56
2023/10/07 06:48:39;;;;;;;22.33;7.70;;;16.60;99.90;;;;;;5066396;28;20075;-54
2023/10/07 06:51:06;;;;;;;24.63;7.63;;;16.60;99.90;;;;;;5052603;28;20045;-57
2023/10/07 06:53:35;;;;;;;20.88;7.65;;;16.60;99.90;;;;;;5061835;28;20045;-58
2023/10/07 06:56:01;;;;;;;18.92;7.57;;;16.60;99.90;;;;;;5057112;28;20426;-55
2023/10/07 06:58:27;;;;;;;24.52;8.00;;;16.60;99.90;;;;;;5054487;28;20037;-58
2023/10/07 07:01:05;;;;;;;19.50;7.15;;;16.60;99.90;;;;;;5064034;28;20060;-58
2023/10/07 07:03:32;;;;;;;25.90;7.88;;;16.60;99.90;;;;;;5063137;28;20053;-58
2023/10/07 07:05:57;;;;;;;;;;;16.70;99.90;;;;;;5064170;28;20119;-56
2023/10/07 07:08:23;;;;;;;17.08;6.45;;;16.70;99.90;;;;;;5066306;28;20383;-58
2023/10/07 07:10:55;;;;;;;23.25;6.95;;;16.70;99.90;;;;;;5055009;28;20041;-57
2023/10/07 07:13:27;;;;;;;25.67;8.07;;;16.70;99.90;;;;;;5048661;28;20048;-58
2023/10/07 07:16:06;;;;;;;28.85;7.63;;;16.70;99.90;;;;;;5055233;28;20045;-58
2023/10/07 07:18:32;;;;;;;19.63;8.13;;;16.70;99.90;;;;;;5054675;28;20080;-58
2023/10/07 07:21:01;;;;;;;24.25;7.85;;;16.70;99.90;;;;;;5066324;28;20040;-58
2023/10/07 07:23:35;;;;;;;23.23;8.30;;;16.80;99.90;;;;;;5060944;28;20101;-58
2023/10/07 07:28:33;;;;;;;20.90;8.60;;;16.80;99.90;;;;;;5045303;28;20083;-57
2023/10/07 07:30:59;;;;;;;18.40;7.47;;;16.80;99.90;;;;;;5049112;28;20448;-54
2023/10/07 07:33:34;;;;;;;17.88;8.63;;;16.80;99.90;;;;;;5056184;28;20045;-57
2023/10/07 07:36:07;;;;;;;21.88;8.35;;;16.80;99.90;;;;;;5061069;28;20123;-57
2023/10/07 07:38:43;;;;;;;19.33;7.15;;;16.90;99.90;;;;;;5050942;28;20041;-57
2023/10/07 07:41:10;;;;;;;23.00;7.15;;;16.90;99.90;;;;;;5050533;28;20515;-57
2023/10/07 07:43:37;;;;;;;18.70;6.95;;;17.00;99.90;;;;;;5056965;28;20093;-59
2023/10/07 07:48:43;;;;;;;15.40;6.97;;;17.10;99.90;;;;;;5057612;28;20047;-57
2023/10/07 07:51:16;;;;;;;25.23;6.90;;;17.10;99.90;;;;;;5068866;28;20456;-57
2023/10/07 07:53:43;;;;;;;23.77;6.20;;;17.20;99.90;;;;;;5062390;28;20102;-59
2023/10/07 07:56:12;;;;;;;20.60;6.85;;;17.30;99.90;;;;;;5062460;28;20044;-59
2023/10/07 07:58:39;;;;;;;16.65;6.53;;;17.40;99.90;;;;;;5066510;28;20037;-58
2023/10/07 08:01:05;;;;;;;17.08;6.25;;;17.50;99.90;;;;;;5060260;28;20556;-59
2023/10/07 08:03:35;;;;;;;18.38;5.35;;;17.60;99.90;;;;;;5066816;28;20056;-58
2023/10/07 08:06:04;;;;;;;20.00;6.78;;;17.60;99.90;;;;;;5065024;28;20399;-57
2023/10/07 08:08:30;;;;;;;23.27;6.50;;;17.70;99.90;;;;;;5056360;28;20929;-58
2023/10/07 08:10:58;;;;;;;;;;;17.70;99.90;;;;;;5068027;28;20585;-58
2023/10/07 08:13:27;;;;;;;19.27;5.80;;;17.70;99.90;;;;;;5059161;28;20011;-58
2023/10/07 08:15:56;;;;;;;17.77;5.88;;;17.70;99.90;;;;;;5065311;28;20036;-59
2023/10/07 08:18:31;;;;;;;11.32;4.68;;;17.70;99.90;;;;;;5064042;28;20028;-59
2023/10/07 08:21:07;;;;;;;21.05;5.40;;;17.80;99.90;;;;;;5069099;28;20036;-59
2023/10/07 08:23:44;;;;;;;16.73;5.30;;;17.90;99.90;;;;;;5057492;28;20036;-59
2023/10/07 08:26:11;;;;;;;9.60;4.90;;;18.00;99.90;;;;;;5057411;28;20040;-58
2023/10/07 08:28:59;;;;;;;15.75;4.90;;;18.00;99.90;;;;;;5057463;28;20040;-59
2023/10/07 08:31:49;;;;;;;13.02;4.88;;;18.10;99.90;;;;;;5064805;28;20053;-57
2023/10/07 08:34:15;;;;;;;11.65;4.55;;;18.20;99.90;;;;;;5056742;28;20047;-59
2023/10/07 08:36:44;;;;;;;16.58;4.40;;;18.20;99.90;;;;;;5067330;28;20531;-60
2023/10/07 08:39:10;;;;;;;15.70;4.30;;;18.20;99.90;;;;;;5067786;28;20079;-59
2023/10/07 08:41:40;;;;;;;14.63;3.78;;;18.10;99.90;;;;;;5069025;28;20141;-59
2023/10/07 08:44:14;;;;;;;14.30;4.70;;;18.10;99.90;;;;;;5069214;28;20033;-59
2023/10/07 08:46:54;;;;;;;12.73;4.95;;;18.20;99.90;;;;;;5067524;28;20099;-59
2023/10/07 08:49:26;;;;;;;13.80;4.07;;;18.20;99.90;;;;;;5067922;28;20068;-58
2023/10/07 08:51:54;;;;;;;11.02;4.00;;;18.20;99.90;;;;;;5068838;28;20067;-59
2023/10/07 08:54:26;;;;;;;11.70;4.35;;;18.20;99.90;;;;;;5069171;28;20037;-58
2023/10/07 08:56:57;;;;;;;11.50;3.38;;;18.30;99.90;;;;;;5069177;28;20033;-59
2023/10/07 08:59:33;;;;;;;14.20;3.85;;;18.40;99.90;;;;;;5068560;28;20404;-59
2023/10/07 09:02:04;;;;;;;9.05;3.03;;;18.40;99.90;;;;;;5068871;28;20388;-59
2023/10/07 09:04:33;;;;;;;14.63;3.67;;;18.30;99.90;;;;;;5069092;28;20116;-59
2023/10/07 09:07:00;;;;;;;10.73;3.75;;;18.40;99.90;;;;;;5068808;28;20041;-59
2023/10/07 09:09:37;;;;;;;9.35;3.35;;;18.30;99.90;;;;;;5070245;28;20048;-58
2023/10/07 09:12:11;;;;;;;14.30;3.40;;;18.40;99.90;;;;;;5072164;28;20095;-59
2023/10/07 09:14:40;;;;;;;10.70;3.45;;;18.30;99.90;;;;;;5073009;28;20032;-59
2023/10/07 09:17:09;;;;;;;12.48;3.88;;;18.30;99.90;;;;;;5072863;28;20044;-58
2023/10/07 09:19:36;;;;;;;12.43;3.67;;;18.30;99.90;;;;;;5071481;28;20107;-59
2023/10/07 09:22:10;;;;;;;15.43;4.35;;;18.30;99.90;;;;;;5072544;28;20048;-60
2023/10/07 09:24:41;;;;;;;12.85;3.85;;;18.30;99.90;;;;;;5071377;28;20049;-60
2023/10/07 09:27:11;;;;;;;11.13;3.28;;;18.50;99.90;;;;;;5073278;28;20091;-59
2023/10/07 09:29:39;;;;;;;14.35;4.28;;;18.60;99.90;;;;;;5072543;28;20612;-57
2023/10/07 09:32:05;;;;;;;;;;;18.70;99.90;;;;;;5072826;28;20052;-59
2023/10/07 09:34:47;;;;;;;16.87;3.83;;;18.80;99.90;;;;;;5072895;28;20418;-57
2023/10/07 09:37:18;;;;;;;14.55;4.10;;;18.90;99.90;;;;;;5072318;28;20040;-57
2023/10/07 09:39:54;;;;;;;14.30;4.05;;;19.00;99.90;;;;;;5072527;28;20041;-59
2023/10/07 09:42:26;;;;;;;12.43;4.15;;;19.00;99.90;;;;;;5072109;28;20044;-60
2023/10/07 09:45:17;;;;;;;12.93;3.60;;;19.20;99.90;;;;;;5072219;28;20036;-59
2023/10/07 09:47:44;;;;;;;13.23;3.40;;;19.30;99.90;;;;;;5070958;28;20049;-57
2023/10/07 09:50:33;;;;;;;13.60;4.30;;;19.40;99.90;;;;;;5072331;28;20045;-59
2023/10/07 09:53:17;;;;;;;15.02;4.13;;;19.50;99.90;;;;;;5071365;28;20738;-59
2023/10/07 09:56:11;;;;;;;13.68;3.47;;;19.70;99.90;;;;;;5071560;28;20123;-56
2023/10/07 09:59:00;;;;;;;15.85;3.70;;;19.80;99.90;;;;;;5072049;28;20052;-58
2023/10/07 10:01:40;;;;;;;18.45;3.50;;;19.80;99.90;;;;;;5071574;28;20052;-59
2023/10/07 10:04:48;;;;;;;13.80;3.10;;;19.90;99.90;;;;;;5071498;28;20040;-59
2023/10/07 10:07:33;;;;;;;;;;;19.80;99.90;;;;;;5072217;28;20052;-58
2023/10/07 10:10:16;;;;;;;11.73;2.90;;;19.70;99.90;;;;;;5071306;28;19924;-58
2023/10/07 10:12:56;;;;;;;12.45;3.20;;;19.60;99.90;;;;;;5071566;28;20044;-58
2023/10/07 10:18:06;;;;;;;19.63;4.38;;;19.40;99.90;;;;;;5071713;28;20388;-59
2023/10/07 10:20:43;;;;;;;13.50;3.72;;;19.40;99.90;;;;;;5070760;28;20075;-60
2023/10/07 10:23:21;;;;;;;10.23;3.55;;;19.30;99.90;;;;;;5070330;28;20564;-59
2023/10/07 10:25:52;;;;;;;12.80;3.70;;;19.30;99.90;;;;;;5071676;28;20044;-58
2023/10/07 10:28:28;;;;;;;12.55;3.92;;;19.30;99.90;;;;;;5071369;28;20090;-59
2023/10/07 10:30:55;;;;;;;11.82;2.97;;;19.20;99.90;;;;;;5071268;28;20047;-59
2023/10/07 10:33:23;;;;;;;12.35;3.30;;;19.30;99.90;;;;;;5071102;28;20049;-58
2023/10/07 10:35:57;;;;;;;13.13;3.42;;;19.20;99.90;;;;;;5062040;28;20036;-59
2023/10/07 10:38:37;;;;;;;13.70;3.45;;;19.20;99.90;;;;;;5053569;28;20095;-60
2023/10/07 10:41:04;;;;;;;12.55;3.55;;;19.10;99.90;;;;;;5063724;28;20032;-59
2023/10/07 10:43:31;;;;;;;15.13;3.65;;;19.10;99.90;;;;;;5057707;28;20040;-58
2023/10/07 10:46:05;;;;;;;13.32;3.08;;;19.20;99.90;;;;;;5051011;28;20485;-57
2023/10/07 10:48:31;;;;;;;12.95;3.58;;;19.20;99.90;;;;;;5064812;28;20037;-58
2023/10/07 10:50:57;;;;;;;15.45;3.95;;;19.30;99.90;;;;;;5064075;28;20105;-58
2023/10/07 10:53:23;;;;;;;13.38;3.67;;;19.30;99.90;;;;;;5068577;28;20504;-58
2023/10/07 10:55:50;;;;;;;10.40;4.00;;;19.50;99.90;;;;;;5067857;28;20043;-56
2023/10/07 10:58:17;;;;;;;13.20;4.10;;;19.50;99.90;;;;;;5064437;28;20040;-59
2023/10/07 11:00:51;;;;;;;11.90;3.65;;;19.50;99.90;;;;;;5060914;28;20032;-56
2023/10/07 11:03:23;;;;;;;13.82;4.10;;;19.50;99.90;;;;;;5066066;28;20037;-59
2023/10/07 11:05:58;;;;;;;16.17;4.38;;;19.50;99.90;;;;;;5063684;28;20555;-58
2023/10/07 11:08:25;;;;;;;12.50;3.38;;;19.50;99.90;;;;;;5059579;28;20417;-57
2023/10/07 11:10:57;;;;;;;13.40;3.28;;;19.50;99.90;;;;;;5057668;28;20097;-57
2023/10/07 11:13:24;;;;;;;13.02;4.18;;;19.50;99.90;;;;;;5065815;28;20303;-60
2023/10/07 11:16:10;;;;;;;13.07;3.30;;;19.50;99.90;;;;;;5056789;28;20048;-58
2023/10/07 11:18:41;;;;;;;15.02;3.85;;;19.50;99.90;;;;;;5064490;28;20034;-56
2023/10/07 11:21:11;;;;;;;19.13;3.78;;;19.40;99.90;;;;;;5064926;28;20406;-58
2023/10/07 11:23:50;;;;;;;15.27;3.50;;;19.40;99.90;;;;;;5069771;28;20442;-57
2023/10/07 11:26:19;;;;;;;13.80;4.47;;;19.40;99.90;;;;;;5060607;28;20403;-58
2023/10/07 11:28:48;;;;;;;16.33;3.47;;;19.40;99.90;;;;;;5070011;28;20533;-56
2023/10/07 11:31:20;;;;;;;12.85;4.53;;;19.30;99.90;;;;;;5064541;28;20055;-58
2023/10/07 11:33:52;;;;;;;17.35;3.78;;;19.30;99.90;;;;;;5069369;28;20437;-59
2023/10/07 11:36:17;;;;;;;11.25;3.53;;;19.40;99.90;;;;;;5068202;28;20119;-58
2023/10/07 11:38:43;;;;;;;15.13;4.78;;;19.40;99.90;;;;;;5069438;28;20547;-58
2023/10/07 11:41:10;;;;;;;10.70;3.70;;;19.40;99.90;;;;;;5066105;28;20032;-58
2023/10/07 11:43:48;;;;;;;11.30;3.72;;;19.40;99.90;;;;;;5067821;28;20071;-56
2023/10/07 11:46:14;;;;;;;14.05;3.55;;;19.40;99.90;;;;;;5063115;28;20033;-58
2023/10/07 11:48:41;;;;;;;10.85;4.07;;;19.50;99.90;;;;;;5068303;28;20546;-59
2023/10/07 11:51:10;;;;;;;13.60;3.60;;;19.50;99.90;;;;;;5058839;28;20044;-60
2023/10/07 11:53:36;;;;;;;17.45;4.07;;;19.50;99.90;;;;;;5068328;28;20375;-60
2023/10/07 11:56:05;;;;;;;;;;;19.50;99.90;;;;;;5064028;28;20036;-60
2023/10/07 11:58:32;;;;;;;13.40;3.30;;;19.50;99.90;;;;;;5064520;28;19917;-57
2023/10/07 12:00:58;;;;;;;14.25;3.83;;;19.50;99.90;;;;;;5065734;28;20040;-59
2023/10/07 12:03:25;;;;;;;16.48;3.53;;;19.60;99.90;;;;;;5065736;28;20037;-59
2023/10/07 12:05:51;;;;;;;9.75;3.95;;;19.60;99.90;;;;;;5067429;28;20059;-58
2023/10/07 12:08:19;;;;;;;18.70;4.25;;;19.70;99.90;;;;;;5067363;28;20040;-59
2023/10/07 12:10:45;;;;;;;14.15;3.95;;;19.80;99.90;;;;;;5066472;28;20468;-58
2023/10/07 12:13:11;;;;;;;15.43;3.97;;;19.90;99.90;;;;;;5064418;28;20396;-59
2023/10/07 12:15:39;;;;;;;;;;;20.20;99.90;;;;;;5067386;28;20037;-59
2023/10/07 12:18:06;;;;;;;11.15;3.47;;;20.20;99.90;;;;;;5063086;28;19920;-60
2023/10/07 12:20:32;;;;;;;18.33;4.93;;;20.30;99.90;;;;;;5068954;28;20051;-58
2023/10/07 12:22:58;;;;;;;16.23;3.72;;;20.30;99.90;;;;;;5066800;28;20143;-60
2023/10/07 12:25:23;;;;;;;;;;;20.30;99.90;;;;;;5065610;28;20119;-59
2023/10/07 12:27:51;;;;;;;19.15;4.75;;;20.30;99.90;;;;;;5066213;28;19916;-58
2023/10/07 12:30:21;;;;;;;17.00;4.75;;;20.40;99.90;;;;;;5058168;28;20036;-57
2023/10/07 12:32:50;;;;;;;18.27;4.57;;;20.40;99.90;;;;;;5058991;28;20040;-60
2023/10/07 12:35:17;;;;;;;15.00;4.22;;;20.50;99.90;;;;;;5067211;28;20321;-59
2023/10/07 12:37:46;;;;;;;11.57;3.90;;;20.50;99.90;;;;;;5060632;28;20487;-59
2023/10/07 12:40:17;;;;;;;18.83;4.70;;;20.50;99.90;;;;;;5067479;28;20482;-60
2023/10/07 12:42:44;;;;;;;20.55;5.20;;;20.50;99.90;;;;;;5060958;28;20040;-57
2023/10/07 12:45:11;;;;;;;12.48;4.47;;;20.60;99.90;;;;;;5062433;28;20047;-60
2023/10/07 12:47:43;;;;;;;16.20;3.67;;;20.60;99.90;;;;;;5058912;28;20097;-59
2023/10/07 12:50:28;;;;;;;11.82;4.05;;;20.70;99.90;;;;;;5065182;28;20040;-60
2023/10/07 12:52:57;;;;;;;12.82;4.30;;;20.70;99.90;;;;;;5058787;28;20049;-56
2023/10/07 12:55:30;;;;;;;14.93;4.18;;;20.60;99.90;;;;;;5056392;28;20029;-60
2023/10/07 12:57:55;;;;;;;11.48;3.75;;;20.50;99.90;;;;;;5059777;28;20039;-60
2023/10/07 13:00:28;;;;;;;;;;;20.40;99.90;;;;;;5058358;28;20037;-60
2023/10/07 13:02:54;;;;;;;15.73;3.75;;;20.30;99.90;;;;;;5061594;28;19948;-59
2023/10/07 13:05:20;;;;;;;;;;;20.30;99.90;;;;;;5055424;28;20075;-60
2023/10/07 13:07:56;;;;;;;14.57;3.20;;;20.20;99.90;;;;;;5052164;28;19916;-60
2023/10/07 13:10:22;;;;;;;15.15;3.58;;;20.30;99.90;;;;;;5056712;28;20036;-59
2023/10/07 13:12:49;;;;;;;;;;;20.30;99.90;;;;;;5049980;28;20052;-60
2023/10/07 13:15:15;;;;;;;16.85;4.55;;;20.40;99.90;;;;;;5054758;28;19927;-59
2023/10/07 13:17:48;;;;;;;;;;;20.40;99.90;;;;;;5048958;28;20029;-60
2023/10/07 13:20:23;;;;;;;17.45;4.55;;;20.40;99.90;;;;;;5041834;28;19916;-59
2023/10/07 13:22:49;;;;;;;13.50;3.63;;;20.40;99.90;;;;;;5046845;28;20037;-60
2023/10/07 13:25:17;;;;;;;10.82;3.17;;;20.40;99.90;;;;;;5048274;28;20403;-59
2023/10/07 13:27:43;;;;;;;18.48;4.57;;;20.30;99.90;;;;;;5048819;28;20041;-59
2023/10/07 13:30:12;;;;;;;9.85;3.85;;;20.30;99.90;;;;;;5046197;28;20060;-58
2023/10/07 13:32:40;;;;;;;13.25;3.45;;;20.30;99.90;;;;;;5056525;28;20083;-58
2023/10/07 13:35:09;;;;;;;15.93;3.90;;;20.40;99.90;;;;;;5055552;28;20581;-58
2023/10/07 13:37:37;;;;;;;11.73;3.67;;;20.40;99.90;;;;;;5051347;28;20499;-59
2023/10/07 13:40:07;;;;;;;12.93;3.35;;;20.40;99.90;;;;;;5048754;28;20036;-59
2023/10/07 13:42:36;;;;;;;8.68;3.10;;;20.50;99.90;;;;;;5049017;28;20036;-57
2023/10/07 13:45:08;;;;;;;15.82;4.30;;;20.40;99.90;;;;;;5045558;28;20518;-55
2023/10/07 13:47:35;;;;;;;14.25;4.28;;;20.20;99.90;;;;;;5043360;28;20043;-59
2023/10/07 13:50:10;;;;;;;15.38;3.65;;;20.10;99.90;;;;;;5044802;28;20052;-59
2023/10/07 13:52:44;;;;;;;14.77;4.38;;;20.00;99.90;;;;;;5042800;28;20037;-58
2023/10/07 13:55:22;;;;;;;12.43;4.43;;;19.90;99.90;;;;;;5039010;28;20041;-58
2023/10/07 13:57:54;;;;;;;17.50;4.03;;;19.80;99.90;;;;;;5039175;28;20053;-57
2023/10/07 14:03:12;;;;;;;15.23;3.33;;;19.80;99.90;;;;;;5056921;28;20063;-55